Time;durP1;ratioP1;P1;durP2;ratioP2;P2;SDS_P1;SDS_P2;PMS_P1;PMS_P2;Temp;Humidity;BMP_temperature;BMP_pressure;BME280_temperature;BME280_humidity;BME280_pressure;Samples;Min_cycle;Max_cycle;Signal;HPM_P1;HPM_P2
2023/01/11 00:01:19;;;;;;;7.03;1.52;;;;;;;6.59;nan;100639.69;5015592;28;20399;-87
2023/01/11 00:03:44;;;;;;;2.88;1.20;;;;;;;6.52;nan;100630.63;5014483;28;20038;-86
2023/01/11 00:06:10;;;;;;;6.45;1.70;;;;;;;6.48;nan;100625.75;5015033;28;20034;-86
2023/01/11 00:08:37;;;;;;;3.65;1.40;;;;;;;6.51;nan;100620.28;5012653;28;20558;-87
2023/01/11 00:11:03;;;;;;;3.72;1.58;;;;;;;6.56;nan;100620.72;5033611;28;20068;-87
2023/01/11 00:13:29;;;;;;;5.20;1.50;;;;;;;6.56;nan;100616.31;5021377;28;20038;-87
2023/01/11 00:15:55;;;;;;;8.73;1.80;;;;;;;6.51;nan;100607.97;5021975;28;20037;-87
2023/01/11 00:18:20;;;;;;;4.80;1.77;;;;;;;6.53;nan;100615.69;5034112;28;20039;-86
2023/01/11 00:20:45;;;;;;;6.63;1.70;;;;;;;6.54;nan;100615.59;5015370;28;20033;-86
2023/01/11 00:23:11;;;;;;;5.45;1.60;;;;;;;6.57;nan;100606.63;5014910;28;20080;-87
2023/01/11 00:25:37;;;;;;;4.82;1.30;;;;;;;6.59;nan;100613.41;5013247;28;20118;-88
2023/01/11 00:28:03;;;;;;;4.20;1.40;;;;;;;6.62;nan;100604.47;5033367;28;20033;-86
2023/01/11 00:30:29;;;;;;;4.97;1.42;;;;;;;6.66;nan;100605.06;5034529;28;20056;-87
2023/01/11 00:32:56;;;;;;;5.85;1.85;;;;;;;6.67;nan;100593.56;5033761;28;20034;-86
2023/01/11 00:35:21;;;;;;;4.10;1.50;;;;;;;6.72;nan;100594.88;5016564;28;20048;-86
2023/01/11 00:37:47;;;;;;;3.55;1.50;;;;;;;6.75;nan;100589.38;5015873;28;20033;-87
2023/01/11 00:40:12;;;;;;;3.90;1.30;;;;;;;6.79;nan;100589.94;5015185;28;20049;-86
2023/01/11 00:48:07;;;;;;;4.00;1.30;;;;;;;6.88;nan;100569.97;5035659;28;20083;-87
2023/01/11 00:50:35;;;;;;;4.80;1.60;;;;;;;6.91;nan;100556.56;5043882;28;20034;-88
2023/01/11 00:53:00;;;;;;;3.42;1.38;;;;;;;6.94;nan;100549.25;5028141;28;20041;-87
2023/01/11 00:55:26;;;;;;;3.38;1.25;;;;;;;6.97;nan;100549.00;5041212;28;20039;-86
2023/01/11 00:57:52;;;;;;;4.72;1.50;;;;;;;7.01;nan;100536.44;5019270;28;20042;-87
2023/01/11 01:00:19;;;;;;;5.57;1.60;;;;;;;7.04;nan;100540.63;5021196;28;20038;-87
2023/01/11 01:02:45;;;;;;;3.42;1.25;;;;;;;7.02;nan;100536.31;5019610;28;20176;-89
2023/01/11 01:05:10;;;;;;;4.35;1.52;;;;;;;7.01;nan;100531.19;5013832;28;20062;-86
2023/01/11 01:07:36;;;;;;;4.97;1.42;;;;;;;7.01;nan;100541.72;5017988;28;20483;-87
2023/01/11 01:10:02;;;;;;;4.60;1.30;;;;;;;6.92;nan;100535.41;5014709;28;20072;-87
2023/01/11 01:15:12;;;;;;;3.42;1.40;;;;;;;6.67;nan;100518.19;5028557;28;20063;-87
2023/01/11 01:17:37;;;;;;;4.93;1.63;;;;;;;6.58;nan;100516.34;5035781;28;20044;-88
2023/01/11 01:20:03;;;;;;;5.60;1.55;;;;;;;6.60;nan;100514.41;5031746;28;20044;-88
2023/01/11 01:22:28;;;;;;;4.88;1.48;;;;;;;6.56;nan;100519.09;5008639;28;20037;-87
2023/01/11 01:24:54;;;;;;;5.45;1.50;;;;;;;6.59;nan;100510.13;5016676;28;20080;-87
2023/01/11 01:27:19;;;;;;;3.47;1.40;;;;;;;6.62;nan;100511.66;5011866;28;20041;-88
2023/01/11 01:29:45;;;;;;;3.55;1.55;;;;;;;6.66;nan;100511.28;5018643;28;20045;-87
2023/01/11 01:32:10;;;;;;;5.55;1.48;;;;;;;6.61;nan;100510.00;5016016;28;20038;-88
2023/01/11 01:34:36;;;;;;;4.75;1.50;;;;;;;6.61;nan;100505.59;5014698;28;20040;-87
2023/01/11 01:37:06;;;;;;;3.85;1.63;;;;;;;6.65;nan;100514.03;5010735;28;20177;-87
2023/01/11 01:39:32;;;;;;;4.22;1.20;;;;;;;6.65;nan;100508.78;5010563;28;20030;-87
2023/01/11 01:45:24;;;;;;;4.70;1.27;;;;;;;6.85;nan;100515.03;5019491;28;20072;-87
2023/01/11 01:47:59;;;;;;;4.13;1.23;;;;;;;6.92;nan;100506.50;5028629;28;20041;-87
2023/01/11 01:50:28;;;;;;;4.97;1.30;;;;;;;6.98;nan;100510.41;5013408;28;20053;-87
2023/01/11 01:52:59;;;;;;;3.80;1.30;;;;;;;7.05;nan;100513.34;5010680;28;20307;-87
2023/01/11 01:55:29;;;;;;;3.17;1.13;;;;;;;7.13;nan;100517.00;5013272;28;20045;-87
2023/01/11 01:57:55;;;;;;;3.42;1.40;;;;;;;7.19;nan;100513.00;5030770;28;20047;-88
2023/01/11 02:00:21;;;;;;;3.63;1.50;;;;;;;7.23;nan;100506.53;5013352;28;20125;-87
2023/01/11 02:02:47;;;;;;;2.10;1.15;;;;;;;7.25;nan;100509.88;5019428;28;20127;-87
2023/01/11 02:05:14;;;;;;;2.85;1.13;;;;;;;7.33;nan;100510.03;5027153;28;20096;-88
2023/01/11 02:07:42;;;;;;;3.70;1.20;;;;;;;7.39;nan;100516.59;5016035;28;20535;-86
2023/01/11 02:10:18;;;;;;;5.60;1.48;;;;;;;7.41;nan;100515.50;5034171;28;20040;-87
2023/01/11 02:12:59;;;;;;;3.85;1.20;;;;;;;7.39;nan;100512.16;5028941;28;20037;-89
2023/01/11 02:15:25;;;;;;;3.20;1.20;;;;;;;7.46;nan;100517.72;5011406;28;20340;-89
2023/01/11 02:17:50;;;;;;;4.15;1.38;;;;;;;7.48;nan;100518.41;5029716;28;20042;-88
2023/01/11 02:20:37;;;;;;;4.57;1.30;;;;;;;7.51;nan;100512.03;5011500;28;20483;-88
2023/01/11 02:23:33;;;;;;;4.55;1.30;;;;;;;7.52;nan;100511.91;5019479;28;20036;-90
2023/01/11 02:26:15;;;;;;;4.63;1.20;;;;;;;7.55;nan;100516.09;5029630;28;20045;-89
2023/01/11 02:29:10;;;;;;;4.22;1.30;;;;;;;7.58;nan;100510.56;5035012;28;20029;-88
2023/01/11 02:31:59;;;;;;;3.15;1.17;;;;;;;7.58;nan;100513.19;5035932;28;20038;-89
2023/01/11 02:34:49;;;;;;;4.95;1.35;;;;;;;7.57;nan;100512.34;5035370;28;20024;-90
2023/01/11 02:37:34;;;;;;;2.95;1.42;;;;;;;7.59;nan;100517.50;5051511;28;20041;-89
2023/01/11 02:40:14;;;;;;;3.70;1.10;;;;;;;7.58;nan;100508.78;5049174;28;20033;-88
2023/01/11 02:45:57;;;;;;;4.50;1.27;;;;;;;7.59;nan;100499.06;5012452;28;20089;-88
2023/01/11 02:49:15;;;;;;;3.22;1.20;;;;;;;7.60;nan;100495.47;4993950;28;20056;-89
2023/01/11 02:51:44;;;;;;;4.57;1.20;;;;;;;7.62;nan;100491.72;4951512;29;20031;-88
2023/01/11 02:54:12;;;;;;;2.75;1.10;;;;;;;7.59;nan;100493.81;4950550;29;20043;-87
2023/01/11 02:56:42;;;;;;;4.75;1.60;;;;;;;7.59;nan;100484.13;4988916;28;20026;-88
2023/01/11 02:59:14;;;;;;;3.47;1.10;;;;;;;7.58;nan;100477.19;5027704;28;20082;-88
2023/01/11 03:01:44;;;;;;;3.67;1.10;;;;;;;7.61;nan;100481.34;5033686;28;20063;-87
2023/01/11 03:04:33;;;;;;;2.15;1.10;;;;;;;7.61;nan;100473.47;5030283;28;20033;-87
2023/01/11 03:07:35;;;;;;;2.65;1.20;;;;;;;7.63;nan;100477.63;5031889;28;20565;-88
2023/01/11 03:10:23;;;;;;;3.00;1.10;;;;;;;7.61;nan;100466.41;5017190;28;20045;-88
2023/01/11 03:13:07;;;;;;;3.33;1.27;;;;;;;7.63;nan;100461.00;5017141;28;20029;-88
2023/01/11 03:16:05;;;;;;;2.35;1.20;;;;;;;7.63;nan;100468.91;5015915;28;20046;-88
2023/01/11 03:18:49;;;;;;;3.13;1.20;;;;;;;7.61;nan;100462.94;5023402;28;20099;-87
2023/01/11 03:21:46;;;;;;;2.72;1.25;;;;;;;7.62;nan;100467.22;5003870;28;20064;-87
2023/01/11 03:24:27;;;;;;;3.63;1.20;;;;;;;7.62;nan;100473.31;5023564;28;20128;-88
2023/01/11 03:27:06;;;;;;;2.53;1.30;;;;;;;7.61;nan;100455.88;5013402;28;20049;-87
2023/01/11 03:29:38;;;;;;;4.63;1.20;;;;;;;7.61;nan;100455.03;5013423;28;20487;-88
2023/01/11 03:32:27;;;;;;;2.75;1.13;;;;;;;7.65;nan;100465.16;5013789;28;20026;-90
2023/01/11 03:35:06;;;;;;;1.52;0.85;;;;;;;7.69;nan;100464.88;5014475;28;20194;-88
2023/01/11 03:37:38;;;;;;;2.50;1.00;;;;;;;7.70;nan;100462.13;5013784;28;20495;-88
2023/01/11 03:40:13;;;;;;;3.00;1.10;;;;;;;7.75;nan;100462.56;5012297;28;20442;-88
2023/01/11 03:43:09;;;;;;;2.85;1.25;;;;;;;7.75;nan;100449.41;5029852;28;20034;-89
2023/01/11 03:45:31;;;;;;;3.47;1.10;;;;;;;7.78;nan;100445.66;5030312;28;20061;-87
2023/01/11 03:48:00;;;;;;;2.63;0.98;;;;;;;7.80;nan;100452.44;5030329;28;20029;-88
2023/01/11 03:50:27;;;;;;;1.95;1.10;;;;;;;7.83;nan;100449.53;5012587;28;20045;-88
2023/01/11 03:52:54;;;;;;;2.58;1.30;;;;;;;7.83;nan;100449.53;5030486;28;20124;-88
2023/01/11 03:55:25;;;;;;;3.13;1.20;;;;;;;7.87;nan;100444.84;5003534;28;20418;-88
2023/01/11 03:57:53;;;;;;;3.47;1.10;;;;;;;7.90;nan;100434.03;5011698;28;20036;-88
2023/01/11 04:00:20;;;;;;;3.92;1.00;;;;;;;7.90;nan;100433.22;5012042;28;20120;-88
2023/01/11 04:02:46;;;;;;;3.03;1.17;;;;;;;7.92;nan;100429.47;5028703;28;20614;-88
2023/01/11 04:05:12;;;;;;;2.20;1.10;;;;;;;7.92;nan;100423.38;5030438;28;20033;-87
2023/01/11 04:07:37;;;;;;;3.05;1.10;;;;;;;7.93;nan;100428.50;5020805;28;20467;-89
2023/01/11 04:10:03;;;;;;;1.95;1.30;;;;;;;7.94;nan;100422.28;5012804;28;20044;-88
2023/01/11 04:12:28;;;;;;;3.00;1.27;;;;;;;7.94;nan;100418.81;5015526;28;20029;-88
2023/01/11 04:14:54;;;;;;;3.17;1.10;;;;;;;7.97;nan;100411.47;5002620;28;20044;-88
2023/01/11 04:17:19;;;;;;;4.45;1.40;;;;;;;8.02;nan;100413.69;5010346;28;20041;-89
2023/01/11 04:19:44;;;;;;;2.42;1.10;;;;;;;8.03;nan;100408.28;5012242;28;20036;-87
2023/01/11 04:22:10;;;;;;;1.38;0.90;;;;;;;8.05;nan;100408.13;5035553;28;20108;-87
2023/01/11 04:24:35;;;;;;;2.70;1.08;;;;;;;8.08;nan;100394.69;5011812;28;20032;-88
2023/01/11 04:27:00;;;;;;;5.90;1.38;;;;;;;8.08;nan;100399.97;5029257;28;20040;-88
2023/01/11 04:29:26;;;;;;;5.00;1.10;;;;;;;8.09;nan;100404.25;5015931;28;20040;-90
2023/01/11 04:31:51;;;;;;;3.05;1.20;;;;;;;8.13;nan;100389.84;5037262;28;20034;-88
2023/01/11 04:34:16;;;;;;;2.88;1.08;;;;;;;8.13;nan;100387.22;5010766;28;20240;-88
2023/01/11 04:36:42;;;;;;;2.08;0.98;;;;;;;8.15;nan;100392.31;5010912;28;20561;-87
2023/01/11 04:39:09;;;;;;;1.67;1.15;;;;;;;8.12;nan;100395.25;5011483;28;20040;-87
2023/01/11 04:44:20;;;;;;;1.85;1.10;;;;;;;8.06;nan;100378.22;5023041;28;20394;-87
2023/01/11 04:46:45;;;;;;;3.20;1.13;;;;;;;8.11;nan;100375.16;5026903;28;20029;-87
2023/01/11 04:49:10;;;;;;;2.85;1.15;;;;;;;8.15;nan;100374.75;5029065;28;20073;-87
2023/01/11 04:51:35;;;;;;;1.58;0.80;;;;;;;8.13;nan;100371.41;5011537;28;20118;-88
2023/01/11 04:54:01;;;;;;;3.33;1.10;;;;;;;8.16;nan;100373.75;5029471;28;20037;-88
2023/01/11 04:56:28;;;;;;;3.88;1.08;;;;;;;8.15;nan;100379.16;5028774;28;20033;-87
2023/01/11 04:58:53;;;;;;;4.47;1.17;;;;;;;8.12;nan;100374.16;5011683;28;20029;-87
2023/01/11 05:01:18;;;;;;;3.83;1.40;;;;;;;8.12;nan;100377.63;5012124;28;20103;-88
2023/01/11 05:03:44;;;;;;;2.17;1.15;;;;;;;8.10;nan;100353.22;5012241;28;20250;-88
2023/01/11 05:06:10;;;;;;;3.22;1.20;;;;;;;8.11;nan;100375.97;4991670;28;20026;-88
2023/01/11 05:08:36;;;;;;;5.72;1.20;;;;;;;8.07;nan;100374.59;4992474;28;20380;-88
2023/01/11 05:11:05;;;;;;;3.15;1.10;;;;;;;8.00;nan;100384.00;4992920;28;20045;-90
2023/01/11 05:13:49;;;;;;;3.22;1.30;;;;;;;7.96;nan;100375.56;5010977;28;20024;-89
2023/01/11 05:17:19;;;;;;;3.67;1.33;;;;;;;7.89;nan;100366.56;4995616;28;20140;-88
2023/01/11 05:20:29;;;;;;;2.22;1.20;;;;;;;7.85;nan;100370.44;4972064;28;20122;-88
2023/01/11 05:23:14;;;;;;;2.58;1.20;;;;;;;7.85;nan;100365.16;4953164;28;20533;-88
2023/01/11 05:25:41;;;;;;;3.00;1.30;;;;;;;7.79;nan;100361.28;4980573;28;20038;-88
2023/01/11 05:28:06;;;;;;;2.55;1.20;;;;;;;7.82;nan;100366.28;4992723;28;20341;-91
2023/01/11 05:30:32;;;;;;;2.58;1.20;;;;;;;7.79;nan;100363.91;4992528;28;20121;-89
2023/01/11 05:33:37;;;;;;;4.35;1.25;;;;;;;7.76;nan;100372.09;4994121;28;20038;-89
2023/01/11 05:36:44;;;;;;;2.42;1.10;;;;;;;7.75;nan;100359.91;4915893;29;20036;-89
2023/01/11 05:41:58;;;;;;;3.72;1.27;;;;;;;7.75;nan;100367.81;5066411;28;20109;-81
2023/01/11 05:47:11;;;;;;;2.65;1.23;;;;;;;7.74;nan;100360.03;5072031;28;20098;-82
2023/01/11 05:49:36;;;;;;;2.08;1.10;;;;;;;7.73;nan;100350.47;5054131;23;20067;-81
2023/01/11 05:52:01;;;;;;;1.95;1.20;;;;;;;7.73;nan;100345.22;4995069;28;20058;-83
2023/01/11 05:54:30;;;;;;;3.92;1.42;;;;;;;7.74;nan;100345.06;5004036;28;20505;-82
2023/01/11 05:56:56;;;;;;;4.72;1.48;;;;;;;7.77;nan;100346.59;5014004;28;20038;-83
2023/01/11 05:59:21;;;;;;;3.70;1.13;;;;;;;7.76;nan;100335.22;5011440;28;20400;-83
2023/01/11 06:01:47;;;;;;;3.53;1.00;;;;;;;7.76;nan;100329.97;5007370;28;20033;-82
2023/01/11 06:04:13;;;;;;;3.58;1.35;;;;;;;7.80;nan;100323.47;4998773;28;20444;-81
2023/01/11 06:06:38;;;;;;;3.45;1.70;;;;;;;7.80;nan;100326.09;5008226;28;20153;-82
2023/01/11 06:09:03;;;;;;;4.78;1.50;;;;;;;7.82;nan;100324.16;5002195;28;20065;-83
2023/01/11 06:11:29;;;;;;;3.28;1.25;;;;;;;7.86;nan;100329.97;5024559;28;20045;-83
2023/01/11 06:13:54;;;;;;;4.35;1.40;;;;;;;7.86;nan;100320.28;4998155;28;20045;-83
2023/01/11 06:16:21;;;;;;;3.15;1.20;;;;;;;7.90;nan;100314.75;4999069;28;20109;-82
2023/01/11 06:18:48;;;;;;;3.25;1.45;;;;;;;7.90;nan;100320.00;5016811;28;20042;-83
2023/01/11 06:21:15;;;;;;;4.50;1.70;;;;;;;7.90;nan;100314.75;5002780;28;20088;-83
2023/01/11 06:23:44;;;;;;;3.58;1.77;;;;;;;7.92;nan;100305.72;5028530;28;20034;-82
2023/01/11 06:26:13;;;;;;;4.20;1.83;;;;;;;7.94;nan;100302.97;5013183;28;20441;-84
2023/01/11 06:28:39;;;;;;;4.40;1.77;;;;;;;7.97;nan;100305.31;5014265;28;20038;-83
2023/01/11 06:31:05;;;;;;;3.08;1.52;;;;;;;7.95;nan;100300.19;5021859;28;20165;-82
2023/01/11 06:33:31;;;;;;;1.90;1.20;;;;;;;7.95;nan;100287.00;5014851;28;20439;-82
2023/01/11 06:35:57;;;;;;;3.85;1.40;;;;;;;7.95;nan;100288.81;5000028;28;20044;-84
2023/01/11 06:38:24;;;;;;;2.30;1.45;;;;;;;7.97;nan;100289.50;5002155;28;20117;-82
2023/01/11 06:40:55;;;;;;;3.47;1.50;;;;;;;8.01;nan;100277.75;4998308;28;20034;-82
2023/01/11 06:43:21;;;;;;;2.17;1.27;;;;;;;8.01;nan;100280.38;5024568;28;20354;-81
2023/01/11 06:45:47;;;;;;;3.05;1.55;;;;;;;8.06;nan;100278.13;5009099;28;20040;-81
2023/01/11 06:48:12;;;;;;;3.70;1.38;;;;;;;8.07;nan;100263.97;5003242;28;20136;-82
2023/01/11 06:50:37;;;;;;;3.00;1.40;;;;;;;8.14;nan;100266.88;5016710;28;20128;-81
2023/01/11 06:53:02;;;;;;;3.25;1.30;;;;;;;8.17;nan;100266.59;5020530;28;20038;-81
2023/01/11 06:55:29;;;;;;;2.97;1.40;;;;;;;8.19;nan;100264.66;5024704;28;20130;-81
2023/01/11 06:57:55;;;;;;;2.55;1.33;;;;;;;8.21;nan;100267.97;5022899;28;20042;-80
2023/01/11 07:00:22;;;;;;;2.50;1.30;;;;;;;8.24;nan;100270.31;4999365;28;20065;-82
2023/01/11 07:03:00;;;;;;;1.80;1.10;;;;;;;8.28;nan;100272.53;5023689;28;20029;-88
2023/01/11 07:05:28;;;;;;;2.17;1.15;;;;;;;8.30;nan;100262.69;4992499;28;20049;-81
2023/01/11 07:07:53;;;;;;;2.22;1.10;;;;;;;8.36;nan;100256.00;5014705;28;20034;-82
2023/01/11 07:10:19;;;;;;;2.55;1.27;;;;;;;8.43;nan;100262.38;5036466;28;20049;-81
2023/01/11 07:12:45;;;;;;;2.80;1.10;;;;;;;8.48;nan;100264.59;5019577;28;20026;-83
2023/01/11 07:15:10;;;;;;;2.85;1.20;;;;;;;8.52;nan;100250.16;5013620;28;20030;-82
2023/01/11 07:17:36;;;;;;;2.47;0.95;;;;;;;8.58;nan;100260.13;5026530;28;20096;-81
2023/01/11 07:20:03;;;;;;;2.25;1.00;;;;;;;8.66;nan;100247.03;5002520;28;20386;-82
2023/01/11 07:22:32;;;;;;;2.13;1.00;;;;;;;8.68;nan;100247.72;5021161;28;20095;-82
2023/01/11 07:24:57;;;;;;;2.38;1.15;;;;;;;8.76;nan;100249.63;5017467;28;20545;-81
2023/01/11 07:27:23;;;;;;;2.22;1.10;;;;;;;8.80;nan;100251.00;5004257;28;20061;-82
2023/01/11 07:29:48;;;;;;;1.83;1.02;;;;;;;8.87;nan;100243.34;5023024;28;20063;-81
2023/01/11 07:32:13;;;;;;;1.70;0.95;;;;;;;8.93;nan;100242.72;5005229;28;20041;-82
2023/01/11 07:34:38;;;;;;;1.63;0.90;;;;;;;8.98;nan;100256.28;5017566;28;20040;-82
2023/01/11 07:37:04;;;;;;;1.55;0.88;;;;;;;9.03;nan;100251.41;5001650;28;20099;-81
2023/01/11 07:39:31;;;;;;;2.15;0.90;;;;;;;9.06;nan;100250.28;5017267;28;20048;-81
2023/01/11 07:44:40;;;;;;;1.30;0.73;;;;;;;9.17;nan;100243.97;5016542;28;20076;-81
2023/01/11 07:47:05;;;;;;;1.30;0.73;;;;;;;9.16;nan;100247.59;5010033;28;20531;-81
2023/01/11 07:49:31;;;;;;;2.45;1.05;;;;;;;9.23;nan;100246.00;5022821;28;20033;-83
2023/01/11 07:51:56;;;;;;;3.20;0.88;;;;;;;9.22;nan;100241.69;5035683;28;20048;-83
2023/01/11 07:54:23;;;;;;;1.67;1.00;;;;;;;9.23;nan;100253.94;5028864;28;20640;-82
2023/01/11 07:56:48;;;;;;;2.05;0.90;;;;;;;9.22;nan;100246.97;5023869;28;20063;-82
2023/01/11 07:59:13;;;;;;;2.30;0.93;;;;;;;9.25;nan;100247.53;5014217;28;20574;-81
2023/01/11 08:01:39;;;;;;;1.25;0.73;;;;;;;9.30;nan;100245.25;5013171;28;20041;-82
2023/01/11 08:04:04;;;;;;;1.40;0.82;;;;;;;9.32;nan;100255.66;5025339;28;20037;-81
2023/01/11 08:06:29;;;;;;;1.58;0.80;;;;;;;9.29;nan;100251.50;5022331;28;20046;-81
2023/01/11 08:08:55;;;;;;;2.35;0.80;;;;;;;9.32;nan;100250.41;5012259;28;20069;-81
2023/01/11 08:16:48;;;;;;;1.35;0.75;;;;;;;9.16;nan;100252.88;5024171;28;20032;-82
2023/01/11 08:19:13;;;;;;;1.77;0.95;;;;;;;9.17;nan;100247.41;5028448;28;20029;-81
2023/01/11 08:21:39;;;;;;;1.88;0.90;;;;;;;9.16;nan;100252.88;5036743;28;20034;-81
2023/01/11 08:24:05;;;;;;;2.75;0.90;;;;;;;9.12;nan;100252.31;5025443;28;20507;-80
2023/01/11 08:26:30;;;;;;;1.23;0.80;;;;;;;9.13;nan;100248.72;5019129;28;20038;-81
2023/01/11 08:28:55;;;;;;;1.55;0.77;;;;;;;9.17;nan;100239.50;5031254;28;20041;-82
2023/01/11 08:31:21;;;;;;;1.20;0.60;;;;;;;9.20;nan;100244.50;5016063;28;20181;-81
2023/01/11 08:33:48;;;;;;;2.80;0.55;;;;;;;9.24;nan;100240.56;5029964;28;20175;-82
2023/01/11 08:36:13;;;;;;;2.47;0.73;;;;;;;9.23;nan;100253.94;5036733;28;20118;-82
2023/01/11 08:38:39;;;;;;;1.02;0.60;;;;;;;9.31;nan;100246.91;5010429;28;20049;-83
2023/01/11 08:41:09;;;;;;;1.13;0.65;;;;;;;9.32;nan;100245.94;5018475;28;20037;-82
2023/01/11 08:43:39;;;;;;;1.10;0.70;;;;;;;9.33;nan;100244.13;5016368;28;20075;-82
2023/01/11 08:46:04;;;;;;;1.30;0.80;;;;;;;9.30;nan;100244.44;5008703;28;20281;-82
2023/01/11 08:48:30;;;;;;;1.25;0.65;;;;;;;9.24;nan;100247.66;5027935;28;20073;-83
2023/01/11 08:50:55;;;;;;;1.10;0.70;;;;;;;9.21;nan;100254.06;5031140;28;20099;-83
2023/01/11 08:53:20;;;;;;;1.17;0.70;;;;;;;9.20;nan;100249.78;5006223;28;20054;-82
2023/01/11 08:55:51;;;;;;;2.03;0.73;;;;;;;9.20;nan;100244.50;5015836;28;20398;-82
2023/01/11 08:58:16;;;;;;;2.50;0.80;;;;;;;9.16;nan;100253.69;5029549;28;20563;-83
2023/01/11 09:00:42;;;;;;;2.53;0.80;;;;;;;9.14;nan;100251.19;5009905;28;20030;-82
2023/01/11 09:03:07;;;;;;;1.70;0.95;;;;;;;9.16;nan;100263.41;5021341;28;20052;-83
2023/01/11 09:05:33;;;;;;;1.42;0.80;;;;;;;9.17;nan;100255.34;5007629;28;20455;-83
2023/01/11 09:07:59;;;;;;;1.83;0.80;;;;;;;9.18;nan;100258.81;5008431;28;20368;-82
2023/01/11 09:10:25;;;;;;;2.22;0.98;;;;;;;9.19;nan;100252.56;5018728;28;20057;-81
2023/01/11 09:12:55;;;;;;;4.47;1.13;;;;;;;9.21;nan;100255.88;5008065;28;20690;-81
2023/01/11 09:15:21;;;;;;;2.08;0.80;;;;;;;9.23;nan;100260.03;5011341;28;20038;-82
2023/01/11 09:17:46;;;;;;;1.27;0.70;;;;;;;9.24;nan;100255.56;5006314;28;20200;-82
2023/01/11 09:20:12;;;;;;;2.53;0.77;;;;;;;9.28;nan;100260.41;5034252;28;20029;-84
2023/01/11 09:22:38;;;;;;;1.63;0.60;;;;;;;9.27;nan;100265.81;5009609;28;20034;-83
2023/01/11 09:25:04;;;;;;;1.23;0.80;;;;;;;9.26;nan;100265.00;5026351;28;20057;-83
2023/01/11 09:27:30;;;;;;;2.28;0.90;;;;;;;9.29;nan;100266.50;5023297;28;20168;-84
2023/01/11 09:29:55;;;;;;;1.55;0.77;;;;;;;9.33;nan;100268.69;5011876;28;20042;-84
2023/01/11 09:32:20;;;;;;;2.25;1.00;;;;;;;9.34;nan;100262.47;5001539;28;20071;-84
2023/01/11 09:34:48;;;;;;;1.98;0.73;;;;;;;9.43;nan;100267.81;5026906;28;20401;-84
2023/01/11 09:37:14;;;;;;;1.30;0.68;;;;;;;9.47;nan;100270.00;5033323;28;20093;-85
2023/01/11 09:39:40;;;;;;;1.13;0.70;;;;;;;9.51;nan;100273.13;5031132;28;20111;-84
2023/01/11 09:42:23;;;;;;;3.30;1.10;;;;;;;9.54;nan;100271.03;5033891;28;20095;-84
2023/01/11 09:45:00;;;;;;;1.13;0.70;;;;;;;9.55;nan;100275.31;5018533;28;20479;-83
2023/01/11 09:47:32;;;;;;;1.52;0.80;;;;;;;9.50;nan;100276.78;5019976;28;20520;-85
2023/01/11 09:50:05;;;;;;;1.13;0.80;;;;;;;9.43;nan;100275.72;5029031;28;20037;-84
2023/01/11 09:52:38;;;;;;;1.20;0.77;;;;;;;9.41;nan;100275.03;5006343;28;20037;-84
2023/01/11 09:55:05;;;;;;;1.08;0.73;;;;;;;9.39;nan;100272.56;5032563;28;20037;-81
2023/01/11 09:57:50;;;;;;;2.65;0.90;;;;;;;9.36;nan;100280.75;5025712;28;20037;-82
2023/01/11 10:00:40;;;;;;;1.08;0.73;;;;;;;9.38;nan;100275.34;5019662;28;20060;-81
2023/01/11 10:03:28;;;;;;;1.83;0.80;;;;;;;9.37;nan;100271.88;5016169;28;20033;-82
2023/01/11 10:06:16;;;;;;;0.93;0.68;;;;;;;9.34;nan;100285.34;5027952;28;20507;-82
2023/01/11 10:09:17;;;;;;;1.42;0.73;;;;;;;9.32;nan;100277.59;5011398;28;20121;-81
2023/01/11 10:12:00;;;;;;;1.67;0.80;;;;;;;9.32;nan;100285.53;5004386;28;20500;-80
2023/01/11 10:14:54;;;;;;;1.48;0.70;;;;;;;9.33;nan;100286.34;5022796;28;20038;-81
2023/01/11 10:17:35;;;;;;;1.50;0.88;;;;;;;9.31;nan;100275.09;5018554;28;20041;-81
2023/01/11 10:20:10;;;;;;;2.03;1.13;;;;;;;9.32;nan;100274.97;5029086;28;20072;-82
2023/01/11 10:22:40;;;;;;;2.13;0.80;;;;;;;9.31;nan;100273.28;5030502;28;20038;-81
2023/01/11 10:25:17;;;;;;;1.60;0.80;;;;;;;9.29;nan;100274.41;5005038;28;20504;-81
2023/01/11 10:28:12;;;;;;;2.58;0.90;;;;;;;9.32;nan;100269.69;5029875;28;20045;-81
2023/01/11 10:34:15;;;;;;;4.30;0.98;;;;;;;9.36;nan;100268.38;5056601;28;20036;-81
2023/01/11 10:38:06;;;;;;;1.58;0.93;;;;;;;9.36;nan;100270.19;5028920;28;20032;-82
2023/01/11 10:42:45;;;;;;;2.22;0.80;;;;;;;9.40;nan;100270.75;5056786;23;20584;-85
2023/01/11 10:45:26;;;;;;;2.08;1.08;;;;;;;9.42;nan;100274.91;5052822;28;20117;-85
2023/01/11 10:48:19;;;;;;;1.65;0.80;;;;;;;9.45;nan;100271.94;5035922;28;20052;-85
2023/01/11 10:51:11;;;;;;;2.00;0.98;;;;;;;9.46;nan;100268.34;5036576;28;20029;-85
2023/01/11 10:54:12;;;;;;;2.88;0.90;;;;;;;9.50;nan;100282.06;5054922;28;20025;-86
2023/01/11 10:56:56;;;;;;;2.38;1.15;;;;;;;9.48;nan;100276.91;5036908;28;20040;-85
2023/01/11 10:59:33;;;;;;;2.08;1.00;;;;;;;9.51;nan;100276.63;5052430;28;20067;-85
2023/01/11 11:02:24;;;;;;;1.60;0.88;;;;;;;9.55;nan;100285.06;5035223;28;20037;-86
2023/01/11 11:05:08;;;;;;;3.28;1.00;;;;;;;9.58;nan;100290.03;5034159;28;20549;-86
2023/01/11 11:07:59;;;;;;;2.35;0.90;;;;;;;9.53;nan;100298.44;5051937;28;20136;-86
2023/01/11 11:10:42;;;;;;;1.83;0.90;;;;;;;9.55;nan;100299.09;5027231;28;20031;-86
2023/01/11 11:13:39;;;;;;;1.80;0.95;;;;;;;9.55;nan;100301.72;5052108;28;20552;-86
2023/01/11 11:16:23;;;;;;;1.52;0.90;;;;;;;9.64;nan;100300.00;5052195;28;20040;-87
2023/01/11 11:18:57;;;;;;;1.73;0.88;;;;;;;9.68;nan;100289.97;5034062;28;20156;-86
2023/01/11 11:21:24;;;;;;;3.15;0.77;;;;;;;9.69;nan;100284.53;5056147;28;20123;-86
2023/01/11 11:24:02;;;;;;;2.45;0.90;;;;;;;9.77;nan;100284.63;5058768;28;20040;-87
2023/01/11 11:26:37;;;;;;;2.17;1.13;;;;;;;9.79;nan;100271.25;5036842;28;20037;-86
2023/01/11 11:29:07;;;;;;;1.77;0.77;;;;;;;9.86;nan;100269.66;5061005;28;20036;-87
2023/01/11 11:31:36;;;;;;;0.90;0.73;;;;;;;9.86;nan;100271.47;5047144;28;20045;-86
2023/01/11 11:34:14;;;;;;;3.78;0.85;;;;;;;9.92;nan;100266.41;5075435;28;20017;-85
2023/01/11 11:36:48;;;;;;;2.45;0.90;;;;;;;9.99;nan;100271.91;5048964;28;20037;-85
2023/01/11 11:39:22;;;;;;;2.47;1.00;;;;;;;9.99;nan;100263.97;5074175;28;20045;-86
2023/01/11 11:42:02;;;;;;;2.47;1.05;;;;;;;10.00;nan;100265.63;5067808;28;20350;-86
2023/01/11 11:44:28;;;;;;;1.33;0.83;;;;;;;10.00;nan;100263.81;5049591;28;20099;-86
2023/01/11 11:46:59;;;;;;;1.60;0.90;;;;;;;10.04;nan;100269.63;5049959;28;20033;-86
2023/01/11 11:49:25;;;;;;;2.53;0.90;;;;;;;10.04;nan;100258.25;5068942;28;20033;-86
2023/01/11 11:51:51;;;;;;;1.45;0.90;;;;;;;10.08;nan;100259.56;5049976;28;20062;-87
2023/01/11 11:54:29;;;;;;;2.47;1.00;;;;;;;10.00;nan;100257.69;5053352;28;20033;-86
2023/01/11 11:57:10;;;;;;;3.53;1.20;;;;;;;10.00;nan;100253.25;5030215;28;20033;-86
2023/01/11 11:59:35;;;;;;;2.08;1.10;;;;;;;9.97;nan;100250.09;5046093;28;20090;-89
2023/01/11 12:02:04;;;;;;;1.88;1.10;;;;;;;9.99;nan;100248.97;5032616;28;20060;-88
2023/01/11 12:04:47;;;;;;;2.95;1.48;;;;;;;10.00;nan;100234.75;5035155;28;20603;-88
2023/01/11 12:07:25;;;;;;;2.60;1.30;;;;;;;10.08;nan;100236.63;5025354;28;20126;-89
2023/01/11 12:10:07;;;;;;;3.70;1.33;;;;;;;10.11;nan;100246.06;5034678;28;20032;-88
2023/01/11 12:12:33;;;;;;;1.98;1.20;;;;;;;10.14;nan;100245.75;5033242;28;20037;-89
2023/01/11 12:15:07;;;;;;;2.33;1.20;;;;;;;10.16;nan;100255.16;5035748;28;20165;-89
2023/01/11 12:17:32;;;;;;;1.55;0.88;;;;;;;10.17;nan;100256.00;5025088;28;20033;-89
2023/01/11 12:19:58;;;;;;;2.22;1.20;;;;;;;10.19;nan;100260.13;5049923;28;20402;-88
2023/01/11 12:22:27;;;;;;;1.70;1.00;;;;;;;10.21;nan;100254.69;5060946;28;20033;-86
2023/01/11 12:25:02;;;;;;;3.10;1.20;;;;;;;10.23;nan;100250.09;5048820;28;20040;-86
2023/01/11 12:27:44;;;;;;;3.28;1.27;;;;;;;10.23;nan;100250.09;5027098;28;20076;-88
2023/01/11 12:30:12;;;;;;;2.42;1.42;;;;;;;10.23;nan;100242.16;5019562;28;20107;-88
2023/01/11 12:33:00;;;;;;;2.10;1.30;;;;;;;10.21;nan;100247.59;5020073;28;20044;-88
2023/01/11 12:35:31;;;;;;;2.03;1.20;;;;;;;10.19;nan;100249.56;5032756;28;20035;-88
2023/01/11 12:38:06;;;;;;;2.03;1.33;;;;;;;10.18;nan;100244.47;5031625;28;20409;-88
2023/01/11 12:40:54;;;;;;;4.47;1.38;;;;;;;10.13;nan;100250.22;5033258;28;20021;-88
2023/01/11 12:43:50;;;;;;;2.90;1.38;;;;;;;10.12;nan;100245.88;5035129;28;20296;-88
2023/01/11 12:46:21;;;;;;;4.03;1.55;;;;;;;10.13;nan;100236.16;5024169;28;20053;-88
2023/01/11 12:49:11;;;;;;;2.67;1.30;;;;;;;10.13;nan;100229.06;5059289;28;20492;-86